sensor_id;sensor_type;location;lat;lon;timestamp;P1;durP1;ratioP1;P2;durP2;ratioP2
35225;SDS011;21813;49.686;21.766;2023-11-22T00:08:47;33.15;;;17.70;;
35225;SDS011;21813;49.686;21.766;2023-11-22T00:41:37;18.35;;;11.05;;
35225;SDS011;21813;49.686;21.766;2023-11-22T00:44:03;15.32;;;10.40;;
35225;SDS011;21813;49.686;21.766;2023-11-22T02:01:38;11.20;;;6.95;;
35225;SDS011;21813;49.686;21.766;2023-11-22T02:17:36;9.70;;;6.72;;
35225;SDS011;21813;49.686;21.766;2023-11-22T02:25:44;10.65;;;8.20;;
35225;SDS011;21813;49.686;21.766;2023-11-22T02:45:58;15.10;;;10.02;;
35225;SDS011;21813;49.686;21.766;2023-11-22T03:11:32;14.95;;;8.88;;
35225;SDS011;21813;49.686;21.766;2023-11-22T03:41:27;14.85;;;9.32;;
35225;SDS011;21813;49.686;21.766;2023-11-22T03:43:58;14.40;;;10.30;;
35225;SDS011;21813;49.686;21.766;2023-11-22T03:53:04;15.63;;;9.90;;
35225;SDS011;21813;49.686;21.766;2023-11-22T03:55:32;16.35;;;11.05;;
35225;SDS011;21813;49.686;21.766;2023-11-22T05:37:22;19.33;;;12.20;;
35225;SDS011;21813;49.686;21.766;2023-11-22T05:40:03;19.07;;;11.57;;
35225;SDS011;21813;49.686;21.766;2023-11-22T06:21:31;17.73;;;11.20;;
35225;SDS011;21813;49.686;21.766;2023-11-22T06:23:56;20.83;;;12.02;;
35225;SDS011;21813;49.686;21.766;2023-11-22T06:26:24;19.70;;;11.57;;
35225;SDS011;21813;49.686;21.766;2023-11-22T06:28:50;27.00;;;14.02;;
35225;SDS011;21813;49.686;21.766;2023-11-22T06:31:22;25.65;;;14.27;;
35225;SDS011;21813;49.686;21.766;2023-11-22T06:33:57;21.30;;;13.40;;
35225;SDS011;21813;49.686;21.766;2023-11-22T06:36:32;24.05;;;13.63;;
35225;SDS011;21813;49.686;21.766;2023-11-22T06:45:28;21.50;;;13.68;;
35225;SDS011;21813;49.686;21.766;2023-11-22T06:47:55;22.00;;;13.07;;
35225;SDS011;21813;49.686;21.766;2023-11-22T06:50:23;22.23;;;13.30;;
35225;SDS011;21813;49.686;21.766;2023-11-22T06:52:54;24.23;;;14.40;;
35225;SDS011;21813;49.686;21.766;2023-11-22T06:55:19;26.42;;;15.00;;
35225;SDS011;21813;49.686;21.766;2023-11-22T06:57:47;24.88;;;14.10;;
35225;SDS011;21813;49.686;21.766;2023-11-22T07:00:16;21.60;;;13.27;;
35225;SDS011;21813;49.686;21.766;2023-11-22T07:02:43;24.85;;;14.25;;
35225;SDS011;21813;49.686;21.766;2023-11-22T07:05:09;26.48;;;14.52;;
35225;SDS011;21813;49.686;21.766;2023-11-22T07:07:37;24.05;;;14.05;;
35225;SDS011;21813;49.686;21.766;2023-11-22T07:10:03;19.77;;;13.63;;
35225;SDS011;21813;49.686;21.766;2023-11-22T07:12:33;23.90;;;13.07;;
35225;SDS011;21813;49.686;21.766;2023-11-22T07:14:59;21.73;;;13.27;;
35225;SDS011;21813;49.686;21.766;2023-11-22T07:17:27;23.83;;;13.90;;
35225;SDS011;21813;49.686;21.766;2023-11-22T07:19:54;23.27;;;13.25;;
35225;SDS011;21813;49.686;21.766;2023-11-22T07:22:34;22.67;;;12.15;;
35225;SDS011;21813;49.686;21.766;2023-11-22T07:25:00;23.20;;;12.50;;
35225;SDS011;21813;49.686;21.766;2023-11-22T07:27:35;23.05;;;13.20;;
35225;SDS011;21813;49.686;21.766;2023-11-22T07:45:37;29.30;;;17.58;;
35225;SDS011;21813;49.686;21.766;2023-11-22T07:51:40;38.35;;;19.35;;
35225;SDS011;21813;49.686;21.766;2023-11-22T07:54:18;32.17;;;16.50;;
35225;SDS011;21813;49.686;21.766;2023-11-22T07:56:56;34.85;;;19.00;;
35225;SDS011;21813;49.686;21.766;2023-11-22T07:59:31;34.92;;;18.48;;
35225;SDS011;21813;49.686;21.766;2023-11-22T08:02:20;35.58;;;18.83;;
35225;SDS011;21813;49.686;21.766;2023-11-22T08:05:06;39.28;;;18.63;;
35225;SDS011;21813;49.686;21.766;2023-11-22T08:08:03;36.97;;;18.92;;
35225;SDS011;21813;49.686;21.766;2023-11-22T08:10:41;30.30;;;18.48;;
35225;SDS011;21813;49.686;21.766;2023-11-22T08:13:07;35.67;;;18.77;;
35225;SDS011;21813;49.686;21.766;2023-11-22T08:16:02;38.97;;;18.65;;
35225;SDS011;21813;49.686;21.766;2023-11-22T08:18:28;39.03;;;19.95;;
35225;SDS011;21813;49.686;21.766;2023-11-22T08:21:11;37.05;;;19.88;;
35225;SDS011;21813;49.686;21.766;2023-11-22T08:24:33;40.97;;;18.23;;
35225;SDS011;21813;49.686;21.766;2023-11-22T08:31:03;36.45;;;18.58;;
35225;SDS011;21813;49.686;21.766;2023-11-22T08:36:39;39.67;;;18.70;;
35225;SDS011;21813;49.686;21.766;2023-11-22T08:42:00;37.95;;;19.15;;
35225;SDS011;21813;49.686;21.766;2023-11-22T08:44:27;38.22;;;18.52;;
35225;SDS011;21813;49.686;21.766;2023-11-22T08:47:05;41.53;;;21.95;;
35225;SDS011;21813;49.686;21.766;2023-11-22T08:49:31;41.78;;;18.88;;
35225;SDS011;21813;49.686;21.766;2023-11-22T08:52:08;43.35;;;22.17;;
35225;SDS011;21813;49.686;21.766;2023-11-22T08:54:43;45.25;;;19.85;;
35225;SDS011;21813;49.686;21.766;2023-11-22T08:57:10;43.45;;;21.70;;
35225;SDS011;21813;49.686;21.766;2023-11-22T09:03:39;34.70;;;18.67;;
35225;SDS011;21813;49.686;21.766;2023-11-22T09:06:24;40.85;;;20.52;;
35225;SDS011;21813;49.686;21.766;2023-11-22T09:08:52;39.60;;;20.20;;
35225;SDS011;21813;49.686;21.766;2023-11-22T09:18:43;42.67;;;21.95;;
35225;SDS011;21813;49.686;21.766;2023-11-22T09:24:35;46.08;;;23.60;;
35225;SDS011;21813;49.686;21.766;2023-11-22T09:31:15;56.28;;;27.05;;
35225;SDS011;21813;49.686;21.766;2023-11-22T09:33:48;47.00;;;22.67;;
35225;SDS011;21813;49.686;21.766;2023-11-22T09:36:16;50.60;;;25.13;;
35225;SDS011;21813;49.686;21.766;2023-11-22T09:42:08;46.45;;;23.60;;
35225;SDS011;21813;49.686;21.766;2023-11-22T09:45:11;35.13;;;18.55;;
35225;SDS011;21813;49.686;21.766;2023-11-22T10:07:10;43.17;;;19.70;;
35225;SDS011;21813;49.686;21.766;2023-11-22T10:10:05;35.60;;;19.23;;
35225;SDS011;21813;49.686;21.766;2023-11-22T10:13:13;41.58;;;20.17;;
35225;SDS011;21813;49.686;21.766;2023-11-22T10:15:39;43.67;;;21.35;;
35225;SDS011;21813;49.686;21.766;2023-11-22T10:18:07;36.97;;;19.27;;
35225;SDS011;21813;49.686;21.766;2023-11-22T10:20:39;37.33;;;17.90;;
35225;SDS011;21813;49.686;21.766;2023-11-22T10:23:10;37.47;;;19.58;;
35225;SDS011;21813;49.686;21.766;2023-11-22T10:25:43;31.10;;;17.38;;
35225;SDS011;21813;49.686;21.766;2023-11-22T10:28:57;32.97;;;16.77;;
35225;SDS011;21813;49.686;21.766;2023-11-22T10:31:23;40.15;;;19.77;;
35225;SDS011;21813;49.686;21.766;2023-11-22T10:34:04;35.33;;;18.65;;
35225;SDS011;21813;49.686;21.766;2023-11-22T10:36:35;35.33;;;18.35;;
35225;SDS011;21813;49.686;21.766;2023-11-22T10:39:39;34.65;;;18.92;;
35225;SDS011;21813;49.686;21.766;2023-11-22T10:48:26;33.28;;;17.98;;
35225;SDS011;21813;49.686;21.766;2023-11-22T10:50:58;39.42;;;20.58;;
35225;SDS011;21813;49.686;21.766;2023-11-22T10:53:35;34.05;;;17.70;;
35225;SDS011;21813;49.686;21.766;2023-11-22T10:56:12;33.65;;;17.45;;
35225;SDS011;21813;49.686;21.766;2023-11-22T10:58:52;35.08;;;17.05;;
35225;SDS011;21813;49.686;21.766;2023-11-22T11:01:25;34.38;;;17.95;;
35225;SDS011;21813;49.686;21.766;2023-11-22T11:07:12;28.52;;;15.15;;
35225;SDS011;21813;49.686;21.766;2023-11-22T11:09:53;32.88;;;16.95;;
35225;SDS011;21813;49.686;21.766;2023-11-22T11:12:27;35.65;;;17.80;;
35225;SDS011;21813;49.686;21.766;2023-11-22T11:15:15;37.65;;;18.65;;
35225;SDS011;21813;49.686;21.766;2023-11-22T11:18:00;39.85;;;20.67;;
35225;SDS011;21813;49.686;21.766;2023-11-22T11:20:32;32.83;;;17.52;;
35225;SDS011;21813;49.686;21.766;2023-11-22T11:23:19;39.28;;;18.13;;
35225;SDS011;21813;49.686;21.766;2023-11-22T11:25:48;36.30;;;20.13;;
35225;SDS011;21813;49.686;21.766;2023-11-22T11:31:57;43.45;;;20.13;;
35225;SDS011;21813;49.686;21.766;2023-11-22T11:44:15;41.97;;;21.58;;
35225;SDS011;21813;49.686;21.766;2023-11-22T11:49:42;38.40;;;19.77;;
35225;SDS011;21813;49.686;21.766;2023-11-22T11:52:28;34.72;;;18.77;;
35225;SDS011;21813;49.686;21.766;2023-11-22T11:55:21;41.30;;;20.42;;
35225;SDS011;21813;49.686;21.766;2023-11-22T11:57:48;41.17;;;19.73;;
35225;SDS011;21813;49.686;21.766;2023-11-22T12:00:14;46.05;;;22.25;;
35225;SDS011;21813;49.686;21.766;2023-11-22T12:02:40;45.03;;;21.80;;
35225;SDS011;21813;49.686;21.766;2023-11-22T12:05:06;36.50;;;18.25;;
35225;SDS011;21813;49.686;21.766;2023-11-22T12:07:37;32.70;;;18.60;;
35225;SDS011;21813;49.686;21.766;2023-11-22T12:10:03;28.50;;;16.55;;
35225;SDS011;21813;49.686;21.766;2023-11-22T12:12:32;35.28;;;18.90;;
35225;SDS011;21813;49.686;21.766;2023-11-22T12:14:59;32.35;;;18.08;;
35225;SDS011;21813;49.686;21.766;2023-11-22T12:17:25;33.72;;;15.80;;
35225;SDS011;21813;49.686;21.766;2023-11-22T12:19:52;28.40;;;14.65;;
35225;SDS011;21813;49.686;21.766;2023-11-22T12:22:19;30.08;;;15.48;;
35225;SDS011;21813;49.686;21.766;2023-11-22T12:24:48;22.83;;;13.88;;
35225;SDS011;21813;49.686;21.766;2023-11-22T12:27:20;26.43;;;14.63;;
35225;SDS011;21813;49.686;21.766;2023-11-22T12:29:50;32.72;;;16.25;;
35225;SDS011;21813;49.686;21.766;2023-11-22T12:32:30;24.52;;;13.80;;
35225;SDS011;21813;49.686;21.766;2023-11-22T12:34:57;25.70;;;14.18;;
35225;SDS011;21813;49.686;21.766;2023-11-22T12:37:33;29.45;;;16.98;;
35225;SDS011;21813;49.686;21.766;2023-11-22T12:40:12;26.20;;;14.52;;
35225;SDS011;21813;49.686;21.766;2023-11-22T12:46:00;24.67;;;15.35;;
35225;SDS011;21813;49.686;21.766;2023-11-22T12:49:28;30.20;;;15.90;;
35225;SDS011;21813;49.686;21.766;2023-11-22T12:52:07;32.15;;;16.60;;
35225;SDS011;21813;49.686;21.766;2023-11-22T12:54:34;37.53;;;17.30;;
35225;SDS011;21813;49.686;21.766;2023-11-22T12:57:00;40.33;;;18.30;;
35225;SDS011;21813;49.686;21.766;2023-11-22T12:59:27;33.28;;;16.20;;
35225;SDS011;21813;49.686;21.766;2023-11-22T13:01:53;31.92;;;16.38;;
35225;SDS011;21813;49.686;21.766;2023-11-22T13:04:22;35.95;;;17.52;;
35225;SDS011;21813;49.686;21.766;2023-11-22T13:06:48;32.63;;;16.35;;
35225;SDS011;21813;49.686;21.766;2023-11-22T13:09:14;30.55;;;15.90;;
35225;SDS011;21813;49.686;21.766;2023-11-22T13:11:43;31.27;;;13.38;;
35225;SDS011;21813;49.686;21.766;2023-11-22T13:14:09;31.15;;;14.57;;
35225;SDS011;21813;49.686;21.766;2023-11-22T13:16:35;28.27;;;15.55;;
35225;SDS011;21813;49.686;21.766;2023-11-22T13:19:04;27.55;;;14.88;;
35225;SDS011;21813;49.686;21.766;2023-11-22T13:21:38;33.28;;;15.15;;
35225;SDS011;21813;49.686;21.766;2023-11-22T13:24:31;34.58;;;15.38;;
35225;SDS011;21813;49.686;21.766;2023-11-22T13:27:03;28.38;;;14.32;;
35225;SDS011;21813;49.686;21.766;2023-11-22T13:29:30;27.40;;;16.10;;
35225;SDS011;21813;49.686;21.766;2023-11-22T13:31:56;26.88;;;14.32;;
35225;SDS011;21813;49.686;21.766;2023-11-22T13:34:23;20.05;;;12.23;;
35225;SDS011;21813;49.686;21.766;2023-11-22T13:36:48;18.00;;;10.50;;
35225;SDS011;21813;49.686;21.766;2023-11-22T13:39:35;20.65;;;10.80;;
35225;SDS011;21813;49.686;21.766;2023-11-22T13:42:01;24.25;;;11.40;;
35225;SDS011;21813;49.686;21.766;2023-11-22T13:44:27;20.40;;;11.82;;
35225;SDS011;21813;49.686;21.766;2023-11-22T13:46:53;17.23;;;10.38;;
35225;SDS011;21813;49.686;21.766;2023-11-22T13:49:19;19.70;;;10.98;;
35225;SDS011;21813;49.686;21.766;2023-11-22T13:51:56;19.30;;;11.02;;
35225;SDS011;21813;49.686;21.766;2023-11-22T13:57:11;21.15;;;11.43;;
35225;SDS011;21813;49.686;21.766;2023-11-22T13:59:39;19.55;;;11.70;;
35225;SDS011;21813;49.686;21.766;2023-11-22T14:02:06;24.42;;;11.15;;
35225;SDS011;21813;49.686;21.766;2023-11-22T14:04:31;22.33;;;12.82;;
35225;SDS011;21813;49.686;21.766;2023-11-22T14:06:57;20.73;;;11.40;;
35225;SDS011;21813;49.686;21.766;2023-11-22T14:09:23;20.55;;;11.27;;
35225;SDS011;21813;49.686;21.766;2023-11-22T14:11:49;22.50;;;12.02;;
35225;SDS011;21813;49.686;21.766;2023-11-22T14:14:15;17.88;;;11.10;;
35225;SDS011;21813;49.686;21.766;2023-11-22T14:16:56;22.23;;;12.43;;
35225;SDS011;21813;49.686;21.766;2023-11-22T14:19:28;20.80;;;11.55;;
35225;SDS011;21813;49.686;21.766;2023-11-22T14:21:55;22.35;;;11.32;;
35225;SDS011;21813;49.686;21.766;2023-11-22T14:24:21;20.95;;;10.18;;
35225;SDS011;21813;49.686;21.766;2023-11-22T14:27:07;20.55;;;9.35;;
35225;SDS011;21813;49.686;21.766;2023-11-22T14:29:45;18.95;;;9.95;;
35225;SDS011;21813;49.686;21.766;2023-11-22T14:35:32;18.80;;;10.32;;
35225;SDS011;21813;49.686;21.766;2023-11-22T14:37:59;20.02;;;11.77;;
35225;SDS011;21813;49.686;21.766;2023-11-22T14:40:32;19.25;;;10.27;;
35225;SDS011;21813;49.686;21.766;2023-11-22T14:49:33;19.38;;;11.73;;
35225;SDS011;21813;49.686;21.766;2023-11-22T14:52:14;18.92;;;10.85;;
35225;SDS011;21813;49.686;21.766;2023-11-22T14:55:03;16.65;;;9.98;;
35225;SDS011;21813;49.686;21.766;2023-11-22T14:57:32;19.17;;;11.02;;
35225;SDS011;21813;49.686;21.766;2023-11-22T14:59:58;22.52;;;11.48;;
35225;SDS011;21813;49.686;21.766;2023-11-22T15:02:24;19.90;;;11.45;;
35225;SDS011;21813;49.686;21.766;2023-11-22T15:05:01;22.60;;;12.98;;
35225;SDS011;21813;49.686;21.766;2023-11-22T15:07:59;20.55;;;12.45;;
35225;SDS011;21813;49.686;21.766;2023-11-22T15:10:28;19.38;;;11.23;;
35225;SDS011;21813;49.686;21.766;2023-11-22T15:13:35;22.83;;;12.32;;
35225;SDS011;21813;49.686;21.766;2023-11-22T15:16:25;21.10;;;11.48;;
35225;SDS011;21813;49.686;21.766;2023-11-22T15:18:59;18.45;;;10.13;;
35225;SDS011;21813;49.686;21.766;2023-11-22T15:22:06;24.95;;;12.48;;
35225;SDS011;21813;49.686;21.766;2023-11-22T15:24:34;24.00;;;11.50;;
35225;SDS011;21813;49.686;21.766;2023-11-22T15:29:57;27.60;;;12.85;;
35225;SDS011;21813;49.686;21.766;2023-11-22T15:32:51;24.88;;;13.50;;
35225;SDS011;21813;49.686;21.766;2023-11-22T15:36:21;19.30;;;10.98;;
35225;SDS011;21813;49.686;21.766;2023-11-22T15:41:50;22.77;;;12.77;;
35225;SDS011;21813;49.686;21.766;2023-11-22T15:44:36;20.13;;;11.20;;
35225;SDS011;21813;49.686;21.766;2023-11-22T15:50:19;22.52;;;12.95;;
35225;SDS011;21813;49.686;21.766;2023-11-22T15:52:46;33.10;;;15.88;;
35225;SDS011;21813;49.686;21.766;2023-11-22T15:55:12;24.75;;;12.40;;
35225;SDS011;21813;49.686;21.766;2023-11-22T15:57:38;24.90;;;13.50;;
35225;SDS011;21813;49.686;21.766;2023-11-22T16:00:04;28.25;;;14.95;;
35225;SDS011;21813;49.686;21.766;2023-11-22T16:02:52;32.63;;;16.05;;
35225;SDS011;21813;49.686;21.766;2023-11-22T16:11:00;23.17;;;12.43;;
35225;SDS011;21813;49.686;21.766;2023-11-22T16:13:26;22.58;;;12.85;;
35225;SDS011;21813;49.686;21.766;2023-11-22T16:15:57;29.42;;;14.40;;
35225;SDS011;21813;49.686;21.766;2023-11-22T16:18:54;29.30;;;15.38;;
35225;SDS011;21813;49.686;21.766;2023-11-22T16:21:23;31.48;;;15.40;;
35225;SDS011;21813;49.686;21.766;2023-11-22T16:24:03;27.35;;;13.15;;
35225;SDS011;21813;49.686;21.766;2023-11-22T16:26:31;28.83;;;15.15;;
35225;SDS011;21813;49.686;21.766;2023-11-22T16:28:58;30.58;;;16.23;;
35225;SDS011;21813;49.686;21.766;2023-11-22T16:31:24;31.05;;;14.57;;
35225;SDS011;21813;49.686;21.766;2023-11-22T16:33:54;29.77;;;13.40;;
35225;SDS011;21813;49.686;21.766;2023-11-22T16:36:20;28.15;;;13.98;;
35225;SDS011;21813;49.686;21.766;2023-11-22T16:38:47;27.05;;;14.85;;
35225;SDS011;21813;49.686;21.766;2023-11-22T16:41:13;32.55;;;15.02;;
35225;SDS011;21813;49.686;21.766;2023-11-22T16:43:39;27.42;;;14.57;;
35225;SDS011;21813;49.686;21.766;2023-11-22T16:46:05;26.70;;;14.80;;
35225;SDS011;21813;49.686;21.766;2023-11-22T16:48:33;28.65;;;14.18;;
35225;SDS011;21813;49.686;21.766;2023-11-22T16:50:59;29.58;;;15.75;;
35225;SDS011;21813;49.686;21.766;2023-11-22T16:53:26;28.77;;;14.85;;
35225;SDS011;21813;49.686;21.766;2023-11-22T16:55:52;27.02;;;14.05;;
35225;SDS011;21813;49.686;21.766;2023-11-22T16:58:21;30.30;;;15.85;;
35225;SDS011;21813;49.686;21.766;2023-11-22T17:00:46;33.75;;;14.95;;
35225;SDS011;21813;49.686;21.766;2023-11-22T17:08:31;29.10;;;14.68;;
35225;SDS011;21813;49.686;21.766;2023-11-22T17:11:01;26.83;;;13.25;;
35225;SDS011;21813;49.686;21.766;2023-11-22T17:13:36;25.42;;;14.25;;
35225;SDS011;21813;49.686;21.766;2023-11-22T17:16:11;29.67;;;15.70;;
35225;SDS011;21813;49.686;21.766;2023-11-22T17:18:39;30.13;;;15.07;;
35225;SDS011;21813;49.686;21.766;2023-11-22T17:21:05;25.85;;;12.73;;
35225;SDS011;21813;49.686;21.766;2023-11-22T17:23:31;30.98;;;13.23;;
35225;SDS011;21813;49.686;21.766;2023-11-22T17:25:58;22.77;;;13.25;;
35225;SDS011;21813;49.686;21.766;2023-11-22T17:28:25;21.60;;;12.63;;
35225;SDS011;21813;49.686;21.766;2023-11-22T17:30:54;24.80;;;12.80;;
35225;SDS011;21813;49.686;21.766;2023-11-22T17:33:25;23.45;;;12.70;;
35225;SDS011;21813;49.686;21.766;2023-11-22T17:35:53;26.75;;;12.65;;
35225;SDS011;21813;49.686;21.766;2023-11-22T17:38:19;23.88;;;13.32;;
35225;SDS011;21813;49.686;21.766;2023-11-22T17:40:48;20.25;;;12.05;;
35225;SDS011;21813;49.686;21.766;2023-11-22T17:43:14;24.77;;;14.05;;
35225;SDS011;21813;49.686;21.766;2023-11-22T17:45:41;27.00;;;14.32;;
35225;SDS011;21813;49.686;21.766;2023-11-22T17:48:07;28.50;;;15.38;;
35225;SDS011;21813;49.686;21.766;2023-11-22T17:50:33;29.08;;;15.40;;
35225;SDS011;21813;49.686;21.766;2023-11-22T17:52:59;27.30;;;14.50;;
35225;SDS011;21813;49.686;21.766;2023-11-22T17:55:25;28.90;;;14.10;;
35225;SDS011;21813;49.686;21.766;2023-11-22T17:57:54;24.08;;;13.23;;
35225;SDS011;21813;49.686;21.766;2023-11-22T18:00:24;27.73;;;15.57;;
35225;SDS011;21813;49.686;21.766;2023-11-22T18:02:51;30.38;;;15.07;;
35225;SDS011;21813;49.686;21.766;2023-11-22T18:05:20;24.75;;;14.70;;
35225;SDS011;21813;49.686;21.766;2023-11-22T18:07:56;26.27;;;14.43;;
35225;SDS011;21813;49.686;21.766;2023-11-22T18:10:22;24.85;;;13.27;;
35225;SDS011;21813;49.686;21.766;2023-11-22T18:12:49;21.20;;;13.15;;
35225;SDS011;21813;49.686;21.766;2023-11-22T18:19:23;24.20;;;13.18;;
35225;SDS011;21813;49.686;21.766;2023-11-22T18:21:54;25.08;;;15.20;;
35225;SDS011;21813;49.686;21.766;2023-11-22T18:24:19;25.10;;;14.27;;
35225;SDS011;21813;49.686;21.766;2023-11-22T18:26:50;25.35;;;13.60;;
35225;SDS011;21813;49.686;21.766;2023-11-22T18:29:15;23.48;;;13.57;;
35225;SDS011;21813;49.686;21.766;2023-11-22T18:31:42;25.92;;;13.95;;
35225;SDS011;21813;49.686;21.766;2023-11-22T18:34:07;19.88;;;12.60;;
35225;SDS011;21813;49.686;21.766;2023-11-22T18:36:33;27.25;;;13.25;;
35225;SDS011;21813;49.686;21.766;2023-11-22T18:38:59;26.30;;;13.38;;
35225;SDS011;21813;49.686;21.766;2023-11-22T18:41:25;26.00;;;14.07;;
35225;SDS011;21813;49.686;21.766;2023-11-22T18:43:52;23.80;;;13.20;;
35225;SDS011;21813;49.686;21.766;2023-11-22T18:46:18;21.73;;;13.15;;
35225;SDS011;21813;49.686;21.766;2023-11-22T18:48:45;26.80;;;13.75;;
35225;SDS011;21813;49.686;21.766;2023-11-22T18:51:17;28.67;;;13.88;;
35225;SDS011;21813;49.686;21.766;2023-11-22T18:53:45;23.00;;;14.00;;
35225;SDS011;21813;49.686;21.766;2023-11-22T18:56:11;21.05;;;12.15;;
35225;SDS011;21813;49.686;21.766;2023-11-22T18:58:40;21.05;;;11.95;;
35225;SDS011;21813;49.686;21.766;2023-11-22T19:01:06;27.50;;;15.40;;
35225;SDS011;21813;49.686;21.766;2023-11-22T19:03:34;27.58;;;14.82;;
35225;SDS011;21813;49.686;21.766;2023-11-22T19:06:00;26.58;;;14.80;;
35225;SDS011;21813;49.686;21.766;2023-11-22T19:08:26;25.98;;;15.80;;
35225;SDS011;21813;49.686;21.766;2023-11-22T19:10:52;26.40;;;14.65;;
35225;SDS011;21813;49.686;21.766;2023-11-22T19:13:18;25.23;;;14.25;;
35225;SDS011;21813;49.686;21.766;2023-11-22T19:16:00;23.15;;;13.38;;
35225;SDS011;21813;49.686;21.766;2023-11-22T19:18:28;24.02;;;13.00;;
35225;SDS011;21813;49.686;21.766;2023-11-22T19:20:55;24.10;;;11.77;;
35225;SDS011;21813;49.686;21.766;2023-11-22T19:23:27;23.20;;;12.20;;
35225;SDS011;21813;49.686;21.766;2023-11-22T19:25:53;25.13;;;12.50;;
35225;SDS011;21813;49.686;21.766;2023-11-22T19:28:24;25.65;;;12.93;;
35225;SDS011;21813;49.686;21.766;2023-11-22T19:30:53;21.52;;;11.80;;
35225;SDS011;21813;49.686;21.766;2023-11-22T19:33:19;22.17;;;12.50;;
35225;SDS011;21813;49.686;21.766;2023-11-22T19:35:45;22.60;;;11.90;;
35225;SDS011;21813;49.686;21.766;2023-11-22T19:38:14;19.05;;;11.80;;
35225;SDS011;21813;49.686;21.766;2023-11-22T19:40:48;20.00;;;11.57;;
35225;SDS011;21813;49.686;21.766;2023-11-22T19:43:15;18.00;;;10.25;;
35225;SDS011;21813;49.686;21.766;2023-11-22T19:45:41;17.60;;;10.95;;
35225;SDS011;21813;49.686;21.766;2023-11-22T19:48:07;18.30;;;10.90;;
35225;SDS011;21813;49.686;21.766;2023-11-22T19:50:33;25.27;;;13.32;;
35225;SDS011;21813;49.686;21.766;2023-11-22T19:52:58;24.83;;;12.98;;
35225;SDS011;21813;49.686;21.766;2023-11-22T19:55:25;29.73;;;15.88;;
35225;SDS011;21813;49.686;21.766;2023-11-22T19:57:51;19.85;;;11.50;;
35225;SDS011;21813;49.686;21.766;2023-11-22T20:00:20;19.48;;;12.13;;
35225;SDS011;21813;49.686;21.766;2023-11-22T20:02:46;20.50;;;12.15;;
35225;SDS011;21813;49.686;21.766;2023-11-22T20:05:12;23.08;;;12.85;;
35225;SDS011;21813;49.686;21.766;2023-11-22T20:07:38;23.77;;;12.40;;
35225;SDS011;21813;49.686;21.766;2023-11-22T20:10:04;22.00;;;11.52;;
35225;SDS011;21813;49.686;21.766;2023-11-22T20:12:31;15.13;;;9.50;;
35225;SDS011;21813;49.686;21.766;2023-11-22T20:14:57;17.80;;;10.20;;
35225;SDS011;21813;49.686;21.766;2023-11-22T20:17:22;19.23;;;11.45;;
35225;SDS011;21813;49.686;21.766;2023-11-22T20:19:48;18.52;;;10.93;;
35225;SDS011;21813;49.686;21.766;2023-11-22T20:22:14;22.67;;;10.88;;
35225;SDS011;21813;49.686;21.766;2023-11-22T20:24:40;19.02;;;11.48;;
35225;SDS011;21813;49.686;21.766;2023-11-22T20:27:06;21.52;;;11.90;;
35225;SDS011;21813;49.686;21.766;2023-11-22T20:29:37;20.55;;;10.38;;
35225;SDS011;21813;49.686;21.766;2023-11-22T20:32:04;19.33;;;11.43;;
35225;SDS011;21813;49.686;21.766;2023-11-22T20:34:30;22.75;;;11.55;;
35225;SDS011;21813;49.686;21.766;2023-11-22T20:36:56;19.08;;;11.07;;
35225;SDS011;21813;49.686;21.766;2023-11-22T20:39:23;23.13;;;11.90;;
35225;SDS011;21813;49.686;21.766;2023-11-22T20:41:48;22.85;;;11.45;;
35225;SDS011;21813;49.686;21.766;2023-11-22T20:44:17;23.20;;;11.65;;
35225;SDS011;21813;49.686;21.766;2023-11-22T20:46:43;20.98;;;11.63;;
35225;SDS011;21813;49.686;21.766;2023-11-22T20:49:09;17.65;;;11.98;;
35225;SDS011;21813;49.686;21.766;2023-11-22T20:51:35;23.83;;;13.18;;
35225;SDS011;21813;49.686;21.766;2023-11-22T20:54:02;19.77;;;11.35;;
35225;SDS011;21813;49.686;21.766;2023-11-22T20:56:27;22.17;;;13.05;;
35225;SDS011;21813;49.686;21.766;2023-11-22T20:58:54;20.45;;;12.20;;
35225;SDS011;21813;49.686;21.766;2023-11-22T21:01:20;22.55;;;12.73;;
35225;SDS011;21813;49.686;21.766;2023-11-22T21:03:46;26.20;;;13.80;;
35225;SDS011;21813;49.686;21.766;2023-11-22T21:06:12;23.48;;;12.50;;
35225;SDS011;21813;49.686;21.766;2023-11-22T21:08:42;23.73;;;12.98;;
35225;SDS011;21813;49.686;21.766;2023-11-22T21:11:15;19.75;;;10.85;;
35225;SDS011;21813;49.686;21.766;2023-11-22T21:13:45;18.98;;;11.80;;
35225;SDS011;21813;49.686;21.766;2023-11-22T21:16:11;24.90;;;12.20;;
35225;SDS011;21813;49.686;21.766;2023-11-22T21:18:37;21.17;;;12.85;;
35225;SDS011;21813;49.686;21.766;2023-11-22T21:21:03;21.35;;;13.43;;
35225;SDS011;21813;49.686;21.766;2023-11-22T21:23:32;24.17;;;12.25;;
35225;SDS011;21813;49.686;21.766;2023-11-22T21:26:03;23.05;;;12.18;;
35225;SDS011;21813;49.686;21.766;2023-11-22T21:28:32;22.30;;;11.70;;
35225;SDS011;21813;49.686;21.766;2023-11-22T21:31:12;24.35;;;13.13;;
35225;SDS011;21813;49.686;21.766;2023-11-22T21:33:44;24.25;;;12.07;;
35225;SDS011;21813;49.686;21.766;2023-11-22T21:36:11;22.08;;;11.98;;
35225;SDS011;21813;49.686;21.766;2023-11-22T21:38:39;23.58;;;11.55;;
35225;SDS011;21813;49.686;21.766;2023-11-22T21:41:05;22.15;;;13.15;;
35225;SDS011;21813;49.686;21.766;2023-11-22T21:43:38;20.58;;;11.40;;
35225;SDS011;21813;49.686;21.766;2023-11-22T21:53:01;26.88;;;12.90;;
35225;SDS011;21813;49.686;21.766;2023-11-22T21:55:27;28.92;;;13.63;;
35225;SDS011;21813;49.686;21.766;2023-11-22T21:57:53;24.15;;;12.73;;
35225;SDS011;21813;49.686;21.766;2023-11-22T22:03:29;35.55;;;15.13;;
35225;SDS011;21813;49.686;21.766;2023-11-22T22:05:56;23.52;;;13.52;;
35225;SDS011;21813;49.686;21.766;2023-11-22T22:08:24;29.83;;;14.55;;
35225;SDS011;21813;49.686;21.766;2023-11-22T22:10:50;25.27;;;14.00;;
35225;SDS011;21813;49.686;21.766;2023-11-22T22:19:51;27.77;;;12.25;;
35225;SDS011;21813;49.686;21.766;2023-11-22T22:22:17;21.45;;;12.23;;
35225;SDS011;21813;49.686;21.766;2023-11-22T22:24:53;18.02;;;10.32;;
35225;SDS011;21813;49.686;21.766;2023-11-22T22:33:45;20.70;;;11.35;;
35225;SDS011;21813;49.686;21.766;2023-11-22T22:36:43;26.83;;;11.82;;
35225;SDS011;21813;49.686;21.766;2023-11-22T22:39:13;30.88;;;13.63;;
35225;SDS011;21813;49.686;21.766;2023-11-22T22:41:41;23.88;;;12.80;;
35225;SDS011;21813;49.686;21.766;2023-11-22T22:44:06;28.88;;;13.95;;
35225;SDS011;21813;49.686;21.766;2023-11-22T22:46:38;22.33;;;13.18;;
35225;SDS011;21813;49.686;21.766;2023-11-22T23:03:03;23.42;;;12.07;;
35225;SDS011;21813;49.686;21.766;2023-11-22T23:06:05;22.75;;;12.45;;
35225;SDS011;21813;49.686;21.766;2023-11-22T23:24:40;20.73;;;12.65;;
